createdAt,value
2023-05-06T08:12:43.001Z,100467.25
2023-05-06T08:14:45.817Z,100467.25
2023-05-06T08:16:50.428Z,100440.56
2023-05-06T08:18:52.744Z,100458.88
2023-05-06T08:20:55.754Z,100495.19
2023-05-06T08:22:58.085Z,100497.81
2023-05-06T08:25:01.383Z,100494.59
2023-05-06T08:27:04.401Z,100535.00
2023-05-06T08:29:08.087Z,100538.44
2023-05-06T08:31:10.492Z,100530.91
2023-05-06T08:33:13.160Z,100524.75
2023-05-06T08:35:15.500Z,100543.62
2023-05-06T08:37:17.796Z,100534.03
2023-05-06T08:39:20.648Z,100544.31
2023-05-06T08:41:26.400Z,100547.66
2023-05-06T08:43:31.971Z,100564.28
2023-05-06T08:45:34.556Z,100572.69
2023-05-06T08:47:37.104Z,100568.22
2023-05-06T08:49:39.499Z,100560.97
2023-05-06T08:51:46.630Z,100553.53
2023-05-06T08:53:49.516Z,100547.75
2023-05-06T08:55:54.065Z,100561.44
2023-05-06T08:57:58.104Z,100562.09
2023-05-06T09:00:01.151Z,100575.28
2023-05-06T09:02:05.044Z,100585.25
2023-05-06T09:04:09.143Z,100582.59
2023-05-06T09:06:11.477Z,100582.00
2023-05-06T09:08:14.600Z,100580.44
2023-05-06T09:10:19.012Z,100576.00
2023-05-06T09:12:21.504Z,100568.53
2023-05-06T09:14:24.172Z,100558.34
2023-05-06T09:16:31.015Z,100561.09
2023-05-06T09:18:37.289Z,100563.88
2023-05-06T09:20:59.364Z,100588.66
2023-05-06T09:23:03.402Z,100606.37
2023-05-06T09:25:06.239Z,100600.44
2023-05-06T09:27:10.662Z,100596.19
2023-05-06T09:29:14.024Z,100591.84
2023-05-06T09:31:16.405Z,100586.97
2023-05-06T09:33:18.732Z,100597.59
2023-05-06T09:35:21.430Z,100596.50
2023-05-06T09:37:24.622Z,100603.47
2023-05-06T09:39:27.723Z,100593.69
2023-05-06T09:41:31.030Z,100582.50
2023-05-06T09:43:33.834Z,100582.47
2023-05-06T09:45:36.822Z,100598.03
2023-05-06T09:47:39.669Z,100594.38
2023-05-06T09:49:42.309Z,100594.34
2023-05-06T09:51:47.918Z,100597.47
2023-05-06T09:53:51.839Z,100621.47
2023-05-06T09:55:56.291Z,100616.09
2023-05-06T09:58:00.509Z,100617.06
2023-05-06T10:00:04.107Z,100611.97
2023-05-06T10:02:15.225Z,100618.69
2023-05-06T10:04:18.509Z,100622.50
2023-05-06T10:06:23.172Z,100620.53
2023-05-06T10:08:26.991Z,100614.22
2023-05-06T10:10:30.125Z,100618.84
2023-05-06T10:12:32.623Z,100620.78
2023-05-06T10:14:38.892Z,100607.28
2023-05-06T10:16:42.354Z,100622.25
2023-05-06T10:18:46.584Z,100619.63
2023-05-06T10:20:53.624Z,100622.09
2023-05-06T10:23:05.575Z,100614.34
2023-05-06T10:25:17.196Z,100609.87
2023-05-06T10:27:24.814Z,100618.72
2023-05-06T10:29:27.478Z,100601.47
2023-05-06T10:31:30.784Z,100603.31
2023-05-06T10:33:33.749Z,100604.25
2023-05-06T10:35:42.535Z,100597.63
2023-05-06T10:37:47.620Z,100605.38
2023-05-06T10:39:49.979Z,100611.66
2023-05-06T10:41:52.989Z,100613.47
2023-05-06T10:44:00.072Z,100613.16
2023-05-06T10:46:17.196Z,100606.53
2023-05-06T10:48:19.833Z,100597.81
2023-05-06T10:50:23.734Z,100607.31
2023-05-06T10:52:26.286Z,100603.72
2023-05-06T10:54:28.868Z,100610.03
2023-05-06T10:56:58.994Z,100607.91
2023-05-06T10:59:09.034Z,100608.97
2023-05-06T11:01:17.550Z,100601.09
2023-05-06T11:03:24.059Z,100609.34
2023-05-06T11:05:26.818Z,100612.28
2023-05-06T11:07:29.597Z,100585.56
2023-05-06T11:09:31.916Z,100583.72
2023-05-06T11:11:51.886Z,100580.91
2023-05-06T11:13:54.527Z,100581.47
2023-05-06T11:15:58.454Z,100568.03
2023-05-06T11:18:00.840Z,100568.19
2023-05-06T11:20:19.879Z,100576.41
2023-05-06T11:22:40.306Z,100581.31
2023-05-06T11:24:43.948Z,100584.94
2023-05-06T11:26:47.745Z,100587.44
2023-05-06T11:28:51.518Z,100598.03
2023-05-06T11:30:55.160Z,100606.09
2023-05-06T11:33:05.373Z,100592.22
2023-05-06T11:35:08.382Z,100582.47
2023-05-06T11:37:10.888Z,100590.38
2023-05-06T11:39:14.379Z,100582.06
2023-05-06T11:41:18.061Z,100577.66
2023-05-06T11:43:20.760Z,100589.44
2023-05-06T11:45:23.565Z,100579.34
2023-05-06T11:47:25.881Z,100581.59
2023-05-06T11:49:28.545Z,100571.34
2023-05-06T11:51:32.509Z,100585.47
2023-05-06T11:53:34.884Z,100583.75
2023-05-06T11:55:38.627Z,100583.25
2023-05-06T11:57:44.742Z,100589.97
2023-05-06T11:59:47.036Z,100584.84
2023-05-06T12:01:49.738Z,100576.53
2023-05-06T12:03:54.956Z,100576.53
2023-05-06T12:05:58.355Z,100572.97
2023-05-06T12:08:00.685Z,100580.81
2023-05-06T12:10:04.394Z,100576.00
2023-05-06T12:12:08.541Z,100567.66
2023-05-06T12:14:11.592Z,100568.97
2023-05-06T12:16:15.731Z,100553.38
2023-05-06T12:18:18.634Z,100555.44
2023-05-06T12:20:22.170Z,100555.53
2023-05-06T12:22:24.885Z,100552.22
2023-05-06T12:24:30.374Z,100555.25
2023-05-06T12:26:49.170Z,100553.94
2023-05-06T12:29:09.164Z,100551.75
2023-05-06T12:31:22.147Z,100546.59
2023-05-06T12:33:24.731Z,100541.94
2023-05-06T12:35:32.073Z,100540.22
2023-05-06T12:37:34.452Z,100545.37
2023-05-06T12:39:38.400Z,100536.19
2023-05-06T12:41:43.778Z,100529.50
2023-05-06T12:43:46.302Z,100523.00
2023-05-06T12:46:06.343Z,100513.72
2023-05-06T12:48:16.164Z,100517.00
2023-05-06T12:50:34.627Z,100501.50
2023-05-06T12:52:44.381Z,100506.53
2023-05-06T12:54:48.102Z,100515.41
2023-05-06T12:56:50.465Z,100513.19
2023-05-06T12:59:00.854Z,100520.69
2023-05-06T13:01:04.138Z,100517.41
2023-05-06T13:03:06.666Z,100519.56
2023-05-06T13:05:09.696Z,100519.75
2023-05-06T13:07:12.663Z,100516.72
2023-05-06T13:09:15.489Z,100509.34
2023-05-06T13:11:18.025Z,100519.38
2023-05-06T13:13:21.155Z,100518.47
2023-05-06T13:15:24.118Z,100516.59
2023-05-06T13:17:26.568Z,100505.56
2023-05-06T13:19:32.845Z,100510.50
2023-05-06T13:21:39.006Z,100508.94
2023-05-06T13:23:47.816Z,100496.47
2023-05-06T13:26:03.717Z,100500.28
2023-05-06T13:28:07.746Z,100501.66
2023-05-06T13:30:10.487Z,100501.31
2023-05-06T13:32:13.471Z,100502.00
2023-05-06T13:34:15.748Z,100502.91
2023-05-06T13:36:18.034Z,100495.44
2023-05-06T13:38:21.096Z,100490.84
2023-05-06T13:40:23.395Z,100498.84
2023-05-06T13:42:25.642Z,100494.97
2023-05-06T13:44:28.175Z,100500.28
2023-05-06T13:46:31.407Z,100494.25
2023-05-06T13:48:34.211Z,100488.37
2023-05-06T13:50:37.294Z,100467.53
2023-05-06T13:52:39.575Z,100459.69
2023-05-06T13:54:41.944Z,100459.94
2023-05-06T13:56:44.520Z,100455.09
2023-05-06T13:58:46.864Z,100468.06
2023-05-06T14:00:49.669Z,100465.06
2023-05-06T14:02:52.251Z,100457.16
2023-05-06T14:04:55.215Z,100445.41
2023-05-06T14:06:57.607Z,100442.31
2023-05-06T14:09:00.228Z,100441.44
2023-05-06T14:11:02.819Z,100428.78
2023-05-06T14:13:07.178Z,100413.00
2023-05-06T14:15:10.983Z,100408.38
2023-05-06T14:17:13.551Z,100418.84
2023-05-06T14:19:15.972Z,100404.19
2023-05-06T14:21:18.584Z,100398.78
2023-05-06T14:23:21.229Z,100399.75
2023-05-06T14:25:26.927Z,100402.87
2023-05-06T14:27:29.781Z,100394.16
2023-05-06T14:29:32.275Z,100374.72
2023-05-06T14:31:34.747Z,100343.31
2023-05-06T14:33:38.532Z,100328.56
2023-05-06T14:35:46.081Z,100325.19
2023-05-06T14:37:48.552Z,100316.09
2023-05-06T14:39:51.168Z,100297.03
2023-05-06T14:41:53.660Z,100270.66
2023-05-06T14:43:55.946Z,100275.72
2023-05-06T14:45:58.598Z,100262.41
2023-05-06T14:48:01.176Z,100235.28
2023-05-06T14:50:03.581Z,100232.81
2023-05-06T14:52:06.238Z,100226.75
2023-05-06T14:54:08.718Z,100212.00
2023-05-06T14:56:11.585Z,100168.97
2023-05-06T14:58:14.341Z,100124.34
2023-05-06T15:00:17.223Z,100097.00
2023-05-06T15:02:19.793Z,100094.06
2023-05-06T15:04:22.395Z,100104.87
2023-05-06T15:06:25.220Z,100089.72
2023-05-06T15:08:27.696Z,100084.84
2023-05-06T15:10:30.327Z,100057.41
2023-05-06T15:12:33.699Z,99990.00
2023-05-06T15:14:36.384Z,99958.31
2023-05-06T15:16:39.068Z,99937.31
2023-05-06T15:18:42.084Z,99945.59
2023-05-06T15:20:44.433Z,99964.72
2023-05-06T15:22:47.108Z,100005.25
2023-05-06T15:24:49.672Z,100021.38
2023-05-06T15:26:53.801Z,100034.88
2023-05-06T15:28:56.389Z,100047.41
2023-05-06T15:30:58.617Z,100026.81
2023-05-06T15:33:02.742Z,100040.47
2023-05-06T15:35:06.331Z,100042.03
2023-05-06T15:37:08.697Z,100022.75
2023-05-06T15:39:11.165Z,100031.59
2023-05-06T15:41:14.044Z,100043.81
2023-05-06T15:43:22.911Z,100042.53
2023-05-06T15:45:26.246Z,100075.81
2023-05-06T15:47:28.934Z,100064.50
2023-05-06T15:51:36.986Z,100081.56
2023-05-06T15:53:40.413Z,100111.66
2023-05-06T15:55:46.482Z,100108.44
2023-05-06T15:57:55.211Z,100100.81
2023-05-06T15:59:57.805Z,100118.41
2023-05-06T16:02:25.449Z,100136.22
2023-05-06T16:04:23.657Z,100165.25
2023-05-06T16:06:27.072Z,100187.75
2023-05-06T16:08:29.485Z,100186.19
2023-05-06T16:10:32.251Z,100220.84
2023-05-06T16:12:34.685Z,100236.22
2023-05-06T16:14:37.081Z,100196.22
2023-05-06T16:16:39.735Z,100183.09
2023-05-06T16:18:42.074Z,100166.25
2023-05-06T16:20:44.720Z,100168.00
2023-05-06T16:22:50.950Z,100146.75
2023-05-06T16:24:53.333Z,100189.47
2023-05-06T16:26:56.076Z,100168.63
2023-05-06T16:28:59.621Z,100179.25
2023-05-06T16:31:02.797Z,100176.75
2023-05-06T16:33:05.290Z,100196.00
2023-05-06T16:35:08.497Z,100180.16
2023-05-06T16:37:10.855Z,100174.81
2023-05-06T16:39:13.237Z,100161.41
2023-05-06T16:41:15.954Z,100163.13
2023-05-06T16:43:21.371Z,100167.44
2023-05-06T16:45:23.691Z,100154.38
2023-05-06T16:47:26.866Z,100128.16
2023-05-06T16:49:29.374Z,100124.63
2023-05-06T16:51:31.706Z,100122.50
2023-05-06T16:53:34.328Z,100122.81
2023-05-06T16:55:36.917Z,100129.72
2023-05-06T16:57:39.331Z,100125.66
2023-05-06T16:59:41.905Z,100133.22
2023-05-06T17:01:44.808Z,100125.41
2023-05-06T17:03:47.272Z,100133.47
2023-05-06T17:05:49.871Z,100136.47
2023-05-06T17:07:52.605Z,100120.16
2023-05-06T17:09:54.968Z,100136.59
2023-05-06T17:11:57.802Z,100138.13
2023-05-06T17:14:00.079Z,100158.91
2023-05-06T17:16:02.439Z,100162.28
2023-05-06T17:18:05.167Z,100142.94
2023-05-06T17:20:08.406Z,100113.56
2023-05-06T17:22:11.101Z,100102.28
2023-05-06T17:24:13.746Z,100114.31
2023-05-06T17:26:17.822Z,100108.09
2023-05-06T17:28:20.630Z,100102.31
2023-05-06T17:30:23.684Z,100100.44
2023-05-06T17:32:26.274Z,100118.28
2023-05-06T17:34:28.700Z,100126.97
2023-05-06T17:36:31.745Z,100126.13
2023-05-06T17:38:34.063Z,100110.97
2023-05-06T17:40:36.370Z,100107.88
2023-05-06T17:42:39.125Z,100118.03
2023-05-06T17:44:42.847Z,100119.31
2023-05-06T17:46:48.205Z,100124.94
2023-05-06T17:48:51.241Z,100107.19
2023-05-06T17:50:53.889Z,100126.25
2023-05-06T17:52:56.297Z,100130.06
2023-05-06T17:55:11.781Z,100130.47
2023-05-06T17:57:18.470Z,100122.13
2023-05-06T17:59:21.124Z,100129.53
2023-05-06T18:01:23.771Z,100121.28
2023-05-06T18:03:26.725Z,100121.53
2023-05-06T18:05:29.334Z,100157.88
2023-05-06T18:07:31.715Z,100141.94
2023-05-06T18:09:35.984Z,100146.31
2023-05-06T18:11:38.813Z,100154.34
2023-05-06T18:13:41.268Z,100142.25
2023-05-06T18:15:43.977Z,100134.59
2023-05-06T18:17:46.525Z,100115.34
2023-05-06T18:19:48.831Z,100135.44
2023-05-06T18:21:51.406Z,100107.78
2023-05-06T18:23:58.805Z,100121.97
2023-05-06T18:26:06.903Z,100114.41
2023-05-06T18:28:09.549Z,100126.75
2023-05-06T18:30:12.150Z,100121.31
2023-05-06T18:32:14.821Z,100126.97
2023-05-06T18:34:17.472Z,100123.53
2023-05-06T18:36:19.782Z,100114.47
2023-05-06T18:38:26.692Z,100112.06
2023-05-06T18:40:29.427Z,100113.56
2023-05-06T18:42:32.364Z,100105.31
2023-05-06T18:44:35.772Z,100102.72
2023-05-06T18:46:38.412Z,100086.34
2023-05-06T18:48:40.729Z,100099.59
2023-05-06T18:50:42.995Z,100113.78
2023-05-06T18:52:45.705Z,100121.97
2023-05-06T18:54:47.982Z,100135.53
2023-05-06T18:56:53.098Z,100143.78
2023-05-06T18:58:55.893Z,100121.97
2023-05-06T19:00:58.410Z,100116.81
2023-05-06T19:03:00.951Z,100132.50
2023-05-06T19:05:03.985Z,100158.84
2023-05-06T19:07:06.311Z,100158.31
2023-05-06T19:09:08.675Z,100179.31
2023-05-06T19:11:21.531Z,100187.81
2023-05-06T19:13:23.999Z,100186.41
2023-05-06T19:15:26.508Z,100190.88
2023-05-06T19:17:29.138Z,100186.06
2023-05-06T19:19:31.859Z,100170.44
2023-05-06T19:21:34.802Z,100174.59
2023-05-06T19:23:37.352Z,100189.50
2023-05-06T19:25:39.826Z,100192.28
2023-05-06T19:27:42.102Z,100212.94
2023-05-06T19:29:44.715Z,100197.63
2023-05-06T19:31:47.040Z,100172.94
2023-05-06T19:33:49.549Z,100174.22
2023-05-06T19:35:52.158Z,100180.88
2023-05-06T19:37:54.750Z,100181.06
2023-05-06T19:39:57.078Z,100191.28
2023-05-06T19:41:59.786Z,100206.31
2023-05-06T19:44:02.139Z,100185.72
2023-05-06T19:46:06.483Z,100184.66
2023-05-06T19:48:09.209Z,100166.28
2023-05-06T19:50:12.068Z,100144.56
2023-05-06T19:52:14.549Z,100132.84
2023-05-06T19:54:19.346Z,100152.53
2023-05-06T19:56:21.752Z,100141.63
2023-05-06T19:58:24.052Z,100154.19
2023-05-06T20:00:28.148Z,100155.44
2023-05-06T20:02:31.562Z,100138.44
2023-05-06T20:04:34.708Z,100131.19
2023-05-06T20:06:37.060Z,100132.03
2023-05-06T20:08:39.621Z,100095.78
2023-05-06T20:10:42.006Z,100098.84
2023-05-06T20:12:44.406Z,100104.00
2023-05-06T20:14:47.038Z,100090.22
2023-05-06T20:16:49.443Z,100100.53
2023-05-06T20:18:52.793Z,100072.13
2023-05-06T20:20:56.363Z,100041.25
2023-05-06T20:22:58.792Z,100021.47
2023-05-06T20:25:16.277Z,100047.22
2023-05-06T20:27:21.834Z,100084.44
2023-05-06T20:29:24.177Z,100080.81
2023-05-06T20:31:26.593Z,100099.34
2023-05-06T20:33:29.195Z,100091.91
2023-05-06T20:35:31.461Z,100089.41
2023-05-06T20:37:35.429Z,100093.06
2023-05-06T20:39:38.040Z,100099.16
2023-05-06T20:41:40.395Z,100125.09
2023-05-06T20:43:42.712Z,100139.44
2023-05-06T20:45:45.431Z,100149.84
2023-05-06T20:47:47.808Z,100179.16
2023-05-06T20:49:50.115Z,100169.81
2023-05-06T20:51:52.734Z,100169.94
2023-05-06T20:53:57.021Z,100143.59
2023-05-06T20:56:00.326Z,100159.59
2023-05-06T20:58:02.949Z,100155.84
2023-05-06T21:00:07.818Z,100166.47
2023-05-06T21:02:10.475Z,100186.66
2023-05-06T21:04:13.095Z,100197.56
2023-05-06T21:06:19.352Z,100198.94
2023-05-06T21:08:21.675Z,100151.25
2023-05-06T21:10:24.201Z,100140.25
2023-05-06T21:12:26.801Z,100142.75
2023-05-06T21:14:29.198Z,100103.62
2023-05-06T21:16:31.732Z,100064.50
2023-05-06T21:18:34.086Z,100046.66
2023-05-06T21:20:36.479Z,100039.28
2023-05-06T21:22:39.091Z,100014.75
2023-05-06T21:24:41.343Z,100025.88
2023-05-06T21:26:43.674Z,100010.75
2023-05-06T21:28:51.329Z,99990.25
2023-05-06T21:30:53.880Z,99981.34
2023-05-06T21:32:56.185Z,100001.81
2023-05-06T21:35:02.084Z,100009.87
2023-05-06T21:37:04.398Z,100015.44
2023-05-06T21:39:09.569Z,99990.56
2023-05-06T21:41:12.177Z,100012.03
2023-05-06T21:43:17.804Z,100005.22
2023-05-06T21:45:21.018Z,100010.19
2023-05-06T21:47:23.580Z,100034.47
2023-05-06T21:49:25.966Z,100040.41
2023-05-06T21:51:29.503Z,100048.22
2023-05-06T21:53:32.176Z,100060.47
2023-05-06T21:55:34.646Z,100040.44
2023-05-06T21:57:37.188Z,100038.62
2023-05-06T21:59:39.851Z,100036.53
2023-05-06T22:01:42.267Z,100052.56
2023-05-06T22:03:46.117Z,100029.28
2023-05-06T22:05:48.549Z,100019.28
2023-05-06T22:07:51.046Z,100049.50
2023-05-06T22:09:53.584Z,100073.72
2023-05-06T22:11:55.907Z,100071.69
2023-05-06T22:13:58.219Z,100056.12
2023-05-06T22:16:00.850Z,100042.75
2023-05-06T22:18:03.292Z,100053.16
2023-05-06T22:20:06.714Z,100043.81
2023-05-06T22:22:09.621Z,100033.25
2023-05-06T22:24:11.853Z,100016.53
2023-05-06T22:26:14.196Z,100007.38
2023-05-06T22:28:16.928Z,99987.88
2023-05-06T22:30:19.430Z,99968.41
2023-05-06T22:32:21.877Z,99947.13
2023-05-06T22:34:24.537Z,99927.94
2023-05-06T22:36:29.034Z,99925.59
2023-05-06T22:38:31.530Z,99940.22
2023-05-06T22:40:34.092Z,99941.91
2023-05-06T22:42:36.508Z,99946.44
2023-05-06T22:44:38.826Z,99932.69
2023-05-06T22:46:41.428Z,99922.81
2023-05-06T22:48:47.053Z,99916.84
2023-05-06T22:50:49.340Z,99914.91
2023-05-06T22:52:51.986Z,99928.25
